sensor_id;sensor_type;location;lat;lon;timestamp;P1;durP1;ratioP1;P2;durP2;ratioP2
31848;SDS011;18414;59.352;18.152;2022-11-20T00:00:48;2.90;;;1.93;;
31848;SDS011;18414;59.352;18.152;2022-11-20T00:03:14;3.03;;;1.67;;
31848;SDS011;18414;59.352;18.152;2022-11-20T00:05:39;1.97;;;1.67;;
31848;SDS011;18414;59.352;18.152;2022-11-20T00:08:05;2.30;;;1.53;;
31848;SDS011;18414;59.352;18.152;2022-11-20T00:10:30;2.10;;;1.90;;
31848;SDS011;18414;59.352;18.152;2022-11-20T00:12:57;3.93;;;2.40;;
31848;SDS011;18414;59.352;18.152;2022-11-20T00:15:23;4.17;;;2.10;;
31848;SDS011;18414;59.352;18.152;2022-11-20T00:17:48;2.83;;;1.90;;
31848;SDS011;18414;59.352;18.152;2022-11-20T00:20:14;2.57;;;1.63;;
31848;SDS011;18414;59.352;18.152;2022-11-20T00:22:39;4.37;;;2.00;;
31848;SDS011;18414;59.352;18.152;2022-11-20T00:25:05;3.97;;;2.17;;
31848;SDS011;18414;59.352;18.152;2022-11-20T00:27:30;3.10;;;1.97;;
31848;SDS011;18414;59.352;18.152;2022-11-20T00:29:55;4.90;;;2.00;;
31848;SDS011;18414;59.352;18.152;2022-11-20T00:32:21;2.50;;;2.07;;
31848;SDS011;18414;59.352;18.152;2022-11-20T00:34:46;2.50;;;2.10;;
31848;SDS011;18414;59.352;18.152;2022-11-20T00:37:11;3.53;;;2.03;;
31848;SDS011;18414;59.352;18.152;2022-11-20T00:39:37;3.37;;;1.63;;
31848;SDS011;18414;59.352;18.152;2022-11-20T00:42:02;4.03;;;2.10;;
31848;SDS011;18414;59.352;18.152;2022-11-20T00:44:27;2.97;;;1.87;;
31848;SDS011;18414;59.352;18.152;2022-11-20T00:46:53;2.23;;;1.67;;
31848;SDS011;18414;59.352;18.152;2022-11-20T00:49:18;3.70;;;2.30;;
31848;SDS011;18414;59.352;18.152;2022-11-20T00:51:43;3.03;;;2.20;;
31848;SDS011;18414;59.352;18.152;2022-11-20T00:54:09;2.10;;;1.90;;
31848;SDS011;18414;59.352;18.152;2022-11-20T00:56:35;3.40;;;2.20;;
31848;SDS011;18414;59.352;18.152;2022-11-20T00:59:00;4.97;;;2.13;;
31848;SDS011;18414;59.352;18.152;2022-11-20T01:01:26;2.63;;;2.00;;
31848;SDS011;18414;59.352;18.152;2022-11-20T01:03:54;2.53;;;1.97;;
31848;SDS011;18414;59.352;18.152;2022-11-20T01:06:22;2.83;;;2.10;;
31848;SDS011;18414;59.352;18.152;2022-11-20T01:08:48;2.53;;;1.77;;
31848;SDS011;18414;59.352;18.152;2022-11-20T01:11:16;2.03;;;1.70;;
31848;SDS011;18414;59.352;18.152;2022-11-20T01:13:44;1.93;;;1.73;;
31848;SDS011;18414;59.352;18.152;2022-11-20T01:16:15;3.87;;;1.67;;
31848;SDS011;18414;59.352;18.152;2022-11-20T01:18:43;3.33;;;1.80;;
31848;SDS011;18414;59.352;18.152;2022-11-20T01:21:11;2.83;;;1.87;;
31848;SDS011;18414;59.352;18.152;2022-11-20T01:23:39;3.27;;;2.10;;
31848;SDS011;18414;59.352;18.152;2022-11-20T01:26:07;2.57;;;1.90;;
31848;SDS011;18414;59.352;18.152;2022-11-20T01:28:34;3.27;;;1.57;;
31848;SDS011;18414;59.352;18.152;2022-11-20T01:31:00;1.50;;;1.40;;
31848;SDS011;18414;59.352;18.152;2022-11-20T01:33:26;2.23;;;1.90;;
31848;SDS011;18414;59.352;18.152;2022-11-20T01:35:52;1.70;;;1.50;;
31848;SDS011;18414;59.352;18.152;2022-11-20T01:38:17;2.73;;;1.83;;
31848;SDS011;18414;59.352;18.152;2022-11-20T01:40:45;2.57;;;1.83;;
31848;SDS011;18414;59.352;18.152;2022-11-20T01:43:14;2.47;;;1.63;;
31848;SDS011;18414;59.352;18.152;2022-11-20T01:48:30;2.10;;;1.90;;
31848;SDS011;18414;59.352;18.152;2022-11-20T01:50:59;2.13;;;1.53;;
31848;SDS011;18414;59.352;18.152;2022-11-20T01:53:25;1.67;;;1.57;;
31848;SDS011;18414;59.352;18.152;2022-11-20T01:55:54;3.33;;;1.70;;
31848;SDS011;18414;59.352;18.152;2022-11-20T01:58:21;1.63;;;1.53;;
31848;SDS011;18414;59.352;18.152;2022-11-20T02:00:48;1.93;;;1.73;;
31848;SDS011;18414;59.352;18.152;2022-11-20T02:03:15;1.20;;;1.10;;
31848;SDS011;18414;59.352;18.152;2022-11-20T02:05:43;2.80;;;1.80;;
31848;SDS011;18414;59.352;18.152;2022-11-20T02:08:15;1.87;;;1.50;;
31848;SDS011;18414;59.352;18.152;2022-11-20T02:10:40;2.10;;;1.70;;
31848;SDS011;18414;59.352;18.152;2022-11-20T02:13:06;1.57;;;1.40;;
31848;SDS011;18414;59.352;18.152;2022-11-20T02:15:49;1.90;;;1.70;;
31848;SDS011;18414;59.352;18.152;2022-11-20T02:18:16;1.60;;;1.47;;
31848;SDS011;18414;59.352;18.152;2022-11-20T02:20:43;2.50;;;1.90;;
31848;SDS011;18414;59.352;18.152;2022-11-20T02:23:12;2.37;;;1.90;;
31848;SDS011;18414;59.352;18.152;2022-11-20T02:25:44;3.57;;;2.20;;
31848;SDS011;18414;59.352;18.152;2022-11-20T02:28:10;2.20;;;1.50;;
31848;SDS011;18414;59.352;18.152;2022-11-20T02:30:36;2.00;;;1.50;;
31848;SDS011;18414;59.352;18.152;2022-11-20T02:33:01;1.83;;;1.60;;
31848;SDS011;18414;59.352;18.152;2022-11-20T02:37:56;2.60;;;1.50;;
31848;SDS011;18414;59.352;18.152;2022-11-20T02:40:23;1.40;;;1.30;;
31848;SDS011;18414;59.352;18.152;2022-11-20T02:42:51;2.03;;;1.73;;
31848;SDS011;18414;59.352;18.152;2022-11-20T02:45:17;2.00;;;1.60;;
31848;SDS011;18414;59.352;18.152;2022-11-20T02:47:42;3.03;;;2.00;;
31848;SDS011;18414;59.352;18.152;2022-11-20T02:50:08;2.77;;;1.60;;
31848;SDS011;18414;59.352;18.152;2022-11-20T02:52:33;1.47;;;1.37;;
31848;SDS011;18414;59.352;18.152;2022-11-20T02:54:59;2.23;;;1.90;;
31848;SDS011;18414;59.352;18.152;2022-11-20T02:57:25;2.27;;;1.50;;
31848;SDS011;18414;59.352;18.152;2022-11-20T02:59:50;1.63;;;1.47;;
31848;SDS011;18414;59.352;18.152;2022-11-20T03:02:16;1.90;;;1.70;;
31848;SDS011;18414;59.352;18.152;2022-11-20T03:04:41;1.63;;;1.47;;
31848;SDS011;18414;59.352;18.152;2022-11-20T03:07:07;1.50;;;1.40;;
31848;SDS011;18414;59.352;18.152;2022-11-20T03:09:32;8.83;;;1.30;;
31848;SDS011;18414;59.352;18.152;2022-11-20T03:11:58;2.47;;;1.50;;
31848;SDS011;18414;59.352;18.152;2022-11-20T03:14:23;2.27;;;1.53;;
31848;SDS011;18414;59.352;18.152;2022-11-20T03:16:48;2.27;;;1.70;;
31848;SDS011;18414;59.352;18.152;2022-11-20T03:19:14;1.57;;;1.40;;
31848;SDS011;18414;59.352;18.152;2022-11-20T03:21:39;1.47;;;1.37;;
31848;SDS011;18414;59.352;18.152;2022-11-20T03:24:05;1.47;;;1.30;;
31848;SDS011;18414;59.352;18.152;2022-11-20T03:26:30;1.60;;;1.50;;
31848;SDS011;18414;59.352;18.152;2022-11-20T03:28:57;2.03;;;1.40;;
31848;SDS011;18414;59.352;18.152;2022-11-20T03:31:25;1.20;;;1.07;;
31848;SDS011;18414;59.352;18.152;2022-11-20T03:33:55;1.63;;;1.43;;
31848;SDS011;18414;59.352;18.152;2022-11-20T03:36:20;1.90;;;1.50;;
31848;SDS011;18414;59.352;18.152;2022-11-20T03:38:46;2.37;;;1.60;;
31848;SDS011;18414;59.352;18.152;2022-11-20T03:41:13;1.50;;;1.40;;
31848;SDS011;18414;59.352;18.152;2022-11-20T03:43:40;1.23;;;1.07;;
31848;SDS011;18414;59.352;18.152;2022-11-20T03:46:07;1.77;;;1.50;;
31848;SDS011;18414;59.352;18.152;2022-11-20T03:48:32;1.30;;;1.07;;
31848;SDS011;18414;59.352;18.152;2022-11-20T03:51:14;2.70;;;1.40;;
31848;SDS011;18414;59.352;18.152;2022-11-20T03:53:42;2.60;;;1.77;;
31848;SDS011;18414;59.352;18.152;2022-11-20T03:56:08;1.40;;;1.30;;
31848;SDS011;18414;59.352;18.152;2022-11-20T03:58:35;1.50;;;1.10;;
31848;SDS011;18414;59.352;18.152;2022-11-20T04:01:07;1.67;;;1.53;;
31848;SDS011;18414;59.352;18.152;2022-11-20T04:03:37;1.77;;;1.60;;
31848;SDS011;18414;59.352;18.152;2022-11-20T04:06:04;1.87;;;1.40;;
31848;SDS011;18414;59.352;18.152;2022-11-20T04:08:31;2.60;;;1.60;;
31848;SDS011;18414;59.352;18.152;2022-11-20T04:10:56;1.97;;;1.50;;
31848;SDS011;18414;59.352;18.152;2022-11-20T04:13:22;1.77;;;1.53;;
31848;SDS011;18414;59.352;18.152;2022-11-20T04:15:47;1.23;;;1.13;;
31848;SDS011;18414;59.352;18.152;2022-11-20T04:18:13;3.07;;;1.33;;
31848;SDS011;18414;59.352;18.152;2022-11-20T04:20:38;3.10;;;1.57;;
31848;SDS011;18414;59.352;18.152;2022-11-20T04:23:03;1.30;;;1.20;;
31848;SDS011;18414;59.352;18.152;2022-11-20T04:25:29;2.40;;;1.63;;
31848;SDS011;18414;59.352;18.152;2022-11-20T04:27:54;1.87;;;1.50;;
31848;SDS011;18414;59.352;18.152;2022-11-20T04:30:19;1.13;;;0.90;;
31848;SDS011;18414;59.352;18.152;2022-11-20T04:32:45;2.30;;;1.40;;
31848;SDS011;18414;59.352;18.152;2022-11-20T04:35:10;2.40;;;1.20;;
31848;SDS011;18414;59.352;18.152;2022-11-20T04:37:35;1.47;;;1.17;;
31848;SDS011;18414;59.352;18.152;2022-11-20T04:40:01;2.57;;;1.30;;
31848;SDS011;18414;59.352;18.152;2022-11-20T04:42:26;2.37;;;1.20;;
31848;SDS011;18414;59.352;18.152;2022-11-20T04:44:54;1.47;;;1.20;;
31848;SDS011;18414;59.352;18.152;2022-11-20T04:47:20;1.87;;;1.50;;
31848;SDS011;18414;59.352;18.152;2022-11-20T04:49:45;1.83;;;1.23;;
31848;SDS011;18414;59.352;18.152;2022-11-20T04:52:11;1.70;;;1.30;;
31848;SDS011;18414;59.352;18.152;2022-11-20T04:54:36;1.23;;;1.10;;
31848;SDS011;18414;59.352;18.152;2022-11-20T04:57:02;1.83;;;1.37;;
31848;SDS011;18414;59.352;18.152;2022-11-20T04:59:27;1.83;;;1.30;;
31848;SDS011;18414;59.352;18.152;2022-11-20T05:01:52;1.23;;;1.00;;
31848;SDS011;18414;59.352;18.152;2022-11-20T05:04:18;1.60;;;1.20;;
31848;SDS011;18414;59.352;18.152;2022-11-20T05:06:43;2.73;;;1.47;;
31848;SDS011;18414;59.352;18.152;2022-11-20T05:09:10;1.20;;;1.10;;
31848;SDS011;18414;59.352;18.152;2022-11-20T05:11:36;2.27;;;1.40;;
31848;SDS011;18414;59.352;18.152;2022-11-20T05:14:01;1.43;;;1.33;;
31848;SDS011;18414;59.352;18.152;2022-11-20T05:16:26;1.53;;;1.40;;
31848;SDS011;18414;59.352;18.152;2022-11-20T05:18:52;0.60;;;0.60;;
31848;SDS011;18414;59.352;18.152;2022-11-20T05:21:19;1.30;;;1.20;;
31848;SDS011;18414;59.352;18.152;2022-11-20T05:23:45;2.33;;;1.10;;
31848;SDS011;18414;59.352;18.152;2022-11-20T05:26:15;0.80;;;0.80;;
31848;SDS011;18414;59.352;18.152;2022-11-20T05:29:01;1.43;;;1.10;;
31848;SDS011;18414;59.352;18.152;2022-11-20T05:31:27;2.63;;;1.40;;
31848;SDS011;18414;59.352;18.152;2022-11-20T05:33:52;1.50;;;1.40;;
31848;SDS011;18414;59.352;18.152;2022-11-20T05:36:18;1.70;;;1.40;;
31848;SDS011;18414;59.352;18.152;2022-11-20T05:38:43;1.40;;;1.30;;
31848;SDS011;18414;59.352;18.152;2022-11-20T05:41:16;1.70;;;1.20;;
31848;SDS011;18414;59.352;18.152;2022-11-20T05:43:43;1.20;;;1.10;;
31848;SDS011;18414;59.352;18.152;2022-11-20T05:46:10;1.63;;;1.30;;
31848;SDS011;18414;59.352;18.152;2022-11-20T05:48:37;1.33;;;1.20;;
31848;SDS011;18414;59.352;18.152;2022-11-20T05:51:03;1.20;;;1.10;;
31848;SDS011;18414;59.352;18.152;2022-11-20T05:53:30;1.20;;;1.10;;
31848;SDS011;18414;59.352;18.152;2022-11-20T05:56:03;1.60;;;1.23;;
31848;SDS011;18414;59.352;18.152;2022-11-20T05:58:31;1.87;;;1.30;;
31848;SDS011;18414;59.352;18.152;2022-11-20T06:01:10;1.43;;;1.30;;
31848;SDS011;18414;59.352;18.152;2022-11-20T06:03:38;1.40;;;1.30;;
31848;SDS011;18414;59.352;18.152;2022-11-20T06:06:04;1.47;;;1.37;;
31848;SDS011;18414;59.352;18.152;2022-11-20T06:08:30;2.23;;;1.50;;
31848;SDS011;18414;59.352;18.152;2022-11-20T06:10:56;1.80;;;1.30;;
31848;SDS011;18414;59.352;18.152;2022-11-20T06:13:22;1.53;;;1.20;;
31848;SDS011;18414;59.352;18.152;2022-11-20T06:15:53;1.60;;;1.47;;
31848;SDS011;18414;59.352;18.152;2022-11-20T06:18:19;1.30;;;1.20;;
31848;SDS011;18414;59.352;18.152;2022-11-20T06:20:45;2.40;;;1.60;;
31848;SDS011;18414;59.352;18.152;2022-11-20T06:23:10;1.60;;;1.40;;
31848;SDS011;18414;59.352;18.152;2022-11-20T06:25:42;1.50;;;1.40;;
31848;SDS011;18414;59.352;18.152;2022-11-20T06:28:08;1.63;;;1.33;;
31848;SDS011;18414;59.352;18.152;2022-11-20T06:30:33;1.57;;;1.40;;
31848;SDS011;18414;59.352;18.152;2022-11-20T06:33:00;1.33;;;1.20;;
31848;SDS011;18414;59.352;18.152;2022-11-20T06:35:25;2.37;;;1.07;;
31848;SDS011;18414;59.352;18.152;2022-11-20T06:37:50;1.67;;;1.30;;
31848;SDS011;18414;59.352;18.152;2022-11-20T06:40:16;3.67;;;1.43;;
31848;SDS011;18414;59.352;18.152;2022-11-20T06:42:41;3.50;;;1.20;;
31848;SDS011;18414;59.352;18.152;2022-11-20T06:45:07;1.27;;;1.17;;
31848;SDS011;18414;59.352;18.152;2022-11-20T06:47:33;1.50;;;1.10;;
31848;SDS011;18414;59.352;18.152;2022-11-20T06:49:58;1.40;;;1.20;;
31848;SDS011;18414;59.352;18.152;2022-11-20T06:52:24;1.50;;;1.40;;
31848;SDS011;18414;59.352;18.152;2022-11-20T06:54:49;1.20;;;0.93;;
31848;SDS011;18414;59.352;18.152;2022-11-20T06:57:14;1.60;;;0.97;;
31848;SDS011;18414;59.352;18.152;2022-11-20T06:59:39;1.10;;;1.00;;
31848;SDS011;18414;59.352;18.152;2022-11-20T07:02:05;1.40;;;1.20;;
31848;SDS011;18414;59.352;18.152;2022-11-20T07:04:31;3.07;;;1.33;;
31848;SDS011;18414;59.352;18.152;2022-11-20T07:06:56;1.40;;;1.30;;
31848;SDS011;18414;59.352;18.152;2022-11-20T07:09:21;1.97;;;1.30;;
31848;SDS011;18414;59.352;18.152;2022-11-20T07:11:48;1.20;;;1.10;;
31848;SDS011;18414;59.352;18.152;2022-11-20T07:14:14;1.23;;;0.90;;
31848;SDS011;18414;59.352;18.152;2022-11-20T07:16:39;1.30;;;1.17;;
31848;SDS011;18414;59.352;18.152;2022-11-20T07:19:04;1.30;;;1.20;;
31848;SDS011;18414;59.352;18.152;2022-11-20T07:21:30;1.83;;;1.20;;
31848;SDS011;18414;59.352;18.152;2022-11-20T07:23:56;1.37;;;1.13;;
31848;SDS011;18414;59.352;18.152;2022-11-20T07:26:21;3.60;;;1.27;;
31848;SDS011;18414;59.352;18.152;2022-11-20T07:28:47;2.17;;;0.90;;
31848;SDS011;18414;59.352;18.152;2022-11-20T07:31:12;1.40;;;1.20;;
31848;SDS011;18414;59.352;18.152;2022-11-20T07:33:38;1.17;;;0.90;;
31848;SDS011;18414;59.352;18.152;2022-11-20T07:36:03;0.90;;;0.90;;
31848;SDS011;18414;59.352;18.152;2022-11-20T07:38:29;1.37;;;1.17;;
31848;SDS011;18414;59.352;18.152;2022-11-20T07:40:55;1.07;;;0.90;;
31848;SDS011;18414;59.352;18.152;2022-11-20T07:43:22;2.47;;;1.20;;
31848;SDS011;18414;59.352;18.152;2022-11-20T07:45:47;1.10;;;1.03;;
31848;SDS011;18414;59.352;18.152;2022-11-20T07:48:13;1.37;;;1.20;;
31848;SDS011;18414;59.352;18.152;2022-11-20T07:50:38;0.80;;;0.80;;
31848;SDS011;18414;59.352;18.152;2022-11-20T07:53:04;1.17;;;0.97;;
31848;SDS011;18414;59.352;18.152;2022-11-20T07:55:30;1.57;;;0.97;;
31848;SDS011;18414;59.352;18.152;2022-11-20T07:57:55;1.77;;;0.93;;
31848;SDS011;18414;59.352;18.152;2022-11-20T08:00:22;2.70;;;1.00;;
31848;SDS011;18414;59.352;18.152;2022-11-20T08:02:47;1.57;;;1.00;;
31848;SDS011;18414;59.352;18.152;2022-11-20T08:05:13;1.10;;;1.00;;
31848;SDS011;18414;59.352;18.152;2022-11-20T08:07:38;0.97;;;0.90;;
31848;SDS011;18414;59.352;18.152;2022-11-20T08:10:05;1.20;;;1.10;;
31848;SDS011;18414;59.352;18.152;2022-11-20T08:12:32;2.40;;;1.10;;
31848;SDS011;18414;59.352;18.152;2022-11-20T08:15:16;3.23;;;1.20;;
31848;SDS011;18414;59.352;18.152;2022-11-20T08:17:41;1.63;;;1.20;;
31848;SDS011;18414;59.352;18.152;2022-11-20T08:20:06;1.00;;;0.90;;
31848;SDS011;18414;59.352;18.152;2022-11-20T08:22:32;1.17;;;0.90;;
31848;SDS011;18414;59.352;18.152;2022-11-20T08:24:57;1.10;;;1.00;;
31848;SDS011;18414;59.352;18.152;2022-11-20T08:27:23;1.33;;;1.00;;
31848;SDS011;18414;59.352;18.152;2022-11-20T08:29:48;1.10;;;1.00;;
31848;SDS011;18414;59.352;18.152;2022-11-20T08:32:14;1.47;;;1.07;;
31848;SDS011;18414;59.352;18.152;2022-11-20T08:34:39;2.10;;;1.10;;
31848;SDS011;18414;59.352;18.152;2022-11-20T08:37:04;1.00;;;0.90;;
31848;SDS011;18414;59.352;18.152;2022-11-20T08:39:30;1.40;;;1.00;;
31848;SDS011;18414;59.352;18.152;2022-11-20T08:41:55;1.10;;;0.90;;
31848;SDS011;18414;59.352;18.152;2022-11-20T08:44:20;1.00;;;0.83;;
31848;SDS011;18414;59.352;18.152;2022-11-20T08:46:46;1.10;;;0.90;;
31848;SDS011;18414;59.352;18.152;2022-11-20T08:49:12;2.80;;;1.20;;
31848;SDS011;18414;59.352;18.152;2022-11-20T08:51:38;0.50;;;0.50;;
31848;SDS011;18414;59.352;18.152;2022-11-20T08:54:03;1.90;;;1.20;;
31848;SDS011;18414;59.352;18.152;2022-11-20T08:56:29;1.90;;;1.07;;
31848;SDS011;18414;59.352;18.152;2022-11-20T08:58:55;1.60;;;0.90;;
31848;SDS011;18414;59.352;18.152;2022-11-20T09:01:20;1.30;;;0.90;;
31848;SDS011;18414;59.352;18.152;2022-11-20T09:03:49;1.90;;;1.27;;
31848;SDS011;18414;59.352;18.152;2022-11-20T09:06:14;1.53;;;1.17;;
31848;SDS011;18414;59.352;18.152;2022-11-20T09:08:40;1.93;;;1.10;;
31848;SDS011;18414;59.352;18.152;2022-11-20T09:11:05;2.40;;;1.40;;
31848;SDS011;18414;59.352;18.152;2022-11-20T09:13:32;0.60;;;0.60;;
31848;SDS011;18414;59.352;18.152;2022-11-20T09:15:59;0.80;;;0.80;;
31848;SDS011;18414;59.352;18.152;2022-11-20T09:18:26;0.90;;;0.90;;
31848;SDS011;18414;59.352;18.152;2022-11-20T09:20:56;1.00;;;1.00;;
31848;SDS011;18414;59.352;18.152;2022-11-20T09:23:22;1.20;;;1.10;;
31848;SDS011;18414;59.352;18.152;2022-11-20T09:25:48;1.93;;;1.10;;
31848;SDS011;18414;59.352;18.152;2022-11-20T09:28:13;1.53;;;0.93;;
31848;SDS011;18414;59.352;18.152;2022-11-20T09:30:38;1.10;;;1.00;;
31848;SDS011;18414;59.352;18.152;2022-11-20T09:33:04;0.87;;;0.87;;
31848;SDS011;18414;59.352;18.152;2022-11-20T09:35:31;1.30;;;0.80;;
31848;SDS011;18414;59.352;18.152;2022-11-20T09:37:56;1.00;;;0.90;;
31848;SDS011;18414;59.352;18.152;2022-11-20T09:40:22;1.10;;;0.80;;
31848;SDS011;18414;59.352;18.152;2022-11-20T09:56:27;1.00;;;0.90;;
31848;SDS011;18414;59.352;18.152;2022-11-20T09:58:57;1.20;;;1.00;;
31848;SDS011;18414;59.352;18.152;2022-11-20T10:01:29;0.60;;;0.60;;
31848;SDS011;18414;59.352;18.152;2022-11-20T10:04:08;1.53;;;0.80;;
31848;SDS011;18414;59.352;18.152;2022-11-20T10:06:47;0.80;;;0.80;;
31848;SDS011;18414;59.352;18.152;2022-11-20T10:12:40;1.90;;;1.00;;
31848;SDS011;18414;59.352;18.152;2022-11-20T10:17:33;1.53;;;0.80;;
31848;SDS011;18414;59.352;18.152;2022-11-20T10:26:01;0.80;;;0.80;;
31848;SDS011;18414;59.352;18.152;2022-11-20T10:31:17;0.87;;;0.87;;
31848;SDS011;18414;59.352;18.152;2022-11-20T10:37:02;0.97;;;0.97;;
31848;SDS011;18414;59.352;18.152;2022-11-20T10:42:39;0.80;;;0.80;;
31848;SDS011;18414;59.352;18.152;2022-11-20T10:47:49;1.77;;;0.87;;
31848;SDS011;18414;59.352;18.152;2022-11-20T10:50:18;1.40;;;1.10;;
31848;SDS011;18414;59.352;18.152;2022-11-20T10:55:55;1.27;;;0.90;;
31848;SDS011;18414;59.352;18.152;2022-11-20T11:01:14;1.10;;;1.00;;
31848;SDS011;18414;59.352;18.152;2022-11-20T11:03:40;1.03;;;0.93;;
31848;SDS011;18414;59.352;18.152;2022-11-20T11:06:22;1.67;;;1.27;;
31848;SDS011;18414;59.352;18.152;2022-11-20T11:08:58;1.00;;;0.90;;
31848;SDS011;18414;59.352;18.152;2022-11-20T11:11:32;1.03;;;0.87;;
31848;SDS011;18414;59.352;18.152;2022-11-20T11:14:08;0.80;;;0.80;;
31848;SDS011;18414;59.352;18.152;2022-11-20T11:16:34;0.80;;;0.80;;
31848;SDS011;18414;59.352;18.152;2022-11-20T11:19:03;1.37;;;0.80;;
31848;SDS011;18414;59.352;18.152;2022-11-20T11:21:35;1.00;;;0.90;;
31848;SDS011;18414;59.352;18.152;2022-11-20T11:24:14;0.80;;;0.80;;
31848;SDS011;18414;59.352;18.152;2022-11-20T11:26:50;0.90;;;0.90;;
31848;SDS011;18414;59.352;18.152;2022-11-20T11:29:17;0.80;;;0.80;;
31848;SDS011;18414;59.352;18.152;2022-11-20T11:31:42;0.80;;;0.80;;
31848;SDS011;18414;59.352;18.152;2022-11-20T11:34:12;1.53;;;0.97;;
31848;SDS011;18414;59.352;18.152;2022-11-20T11:36:39;1.10;;;1.00;;
31848;SDS011;18414;59.352;18.152;2022-11-20T11:39:08;1.40;;;1.00;;
31848;SDS011;18414;59.352;18.152;2022-11-20T11:41:36;1.47;;;1.13;;
31848;SDS011;18414;59.352;18.152;2022-11-20T11:44:19;0.93;;;0.77;;
31848;SDS011;18414;59.352;18.152;2022-11-20T11:47:05;1.07;;;0.90;;
31848;SDS011;18414;59.352;18.152;2022-11-20T11:49:34;2.33;;;1.03;;
31848;SDS011;18414;59.352;18.152;2022-11-20T11:52:04;1.33;;;1.00;;
31848;SDS011;18414;59.352;18.152;2022-11-20T11:57:12;1.30;;;0.93;;
31848;SDS011;18414;59.352;18.152;2022-11-20T11:59:48;1.07;;;0.97;;
31848;SDS011;18414;59.352;18.152;2022-11-20T12:02:25;1.10;;;0.80;;
31848;SDS011;18414;59.352;18.152;2022-11-20T12:04:56;0.73;;;0.73;;
31848;SDS011;18414;59.352;18.152;2022-11-20T12:07:35;1.10;;;0.90;;
31848;SDS011;18414;59.352;18.152;2022-11-20T12:10:05;2.17;;;1.07;;
31848;SDS011;18414;59.352;18.152;2022-11-20T12:12:41;1.00;;;0.80;;
31848;SDS011;18414;59.352;18.152;2022-11-20T12:15:13;0.83;;;0.80;;
31848;SDS011;18414;59.352;18.152;2022-11-20T12:17:43;0.73;;;0.73;;
31848;SDS011;18414;59.352;18.152;2022-11-20T12:20:13;1.00;;;0.90;;
31848;SDS011;18414;59.352;18.152;2022-11-20T12:25:35;0.93;;;0.53;;
31848;SDS011;18414;59.352;18.152;2022-11-20T12:28:11;0.60;;;0.60;;
31848;SDS011;18414;59.352;18.152;2022-11-20T12:30:50;1.70;;;1.00;;
31848;SDS011;18414;59.352;18.152;2022-11-20T12:33:35;1.70;;;1.47;;
31848;SDS011;18414;59.352;18.152;2022-11-20T12:36:09;2.50;;;1.50;;
31848;SDS011;18414;59.352;18.152;2022-11-20T12:39:02;1.27;;;1.17;;
31848;SDS011;18414;59.352;18.152;2022-11-20T12:55:42;1.63;;;1.50;;
31848;SDS011;18414;59.352;18.152;2022-11-20T13:01:19;2.50;;;2.00;;
31848;SDS011;18414;59.352;18.152;2022-11-20T13:06:54;5.10;;;1.97;;
31848;SDS011;18414;59.352;18.152;2022-11-20T13:09:20;3.10;;;1.87;;
31848;SDS011;18414;59.352;18.152;2022-11-20T13:14:29;3.67;;;1.70;;
31848;SDS011;18414;59.352;18.152;2022-11-20T13:17:00;3.00;;;1.60;;
31848;SDS011;18414;59.352;18.152;2022-11-20T13:19:30;2.63;;;1.70;;
31848;SDS011;18414;59.352;18.152;2022-11-20T13:21:56;1.70;;;1.57;;
31848;SDS011;18414;59.352;18.152;2022-11-20T13:24:27;2.20;;;1.60;;
31848;SDS011;18414;59.352;18.152;2022-11-20T13:29:40;2.10;;;1.60;;
31848;SDS011;18414;59.352;18.152;2022-11-20T13:34:38;3.60;;;1.87;;
31848;SDS011;18414;59.352;18.152;2022-11-20T13:37:04;2.67;;;1.83;;
31848;SDS011;18414;59.352;18.152;2022-11-20T13:39:31;1.77;;;1.50;;
31848;SDS011;18414;59.352;18.152;2022-11-20T13:42:02;1.60;;;1.50;;
31848;SDS011;18414;59.352;18.152;2022-11-20T13:44:48;2.57;;;1.30;;
31848;SDS011;18414;59.352;18.152;2022-11-20T13:47:25;1.63;;;1.23;;
31848;SDS011;18414;59.352;18.152;2022-11-20T13:49:51;2.70;;;1.73;;
31848;SDS011;18414;59.352;18.152;2022-11-20T13:55:37;1.47;;;1.30;;
31848;SDS011;18414;59.352;18.152;2022-11-20T14:00:58;1.70;;;1.40;;
31848;SDS011;18414;59.352;18.152;2022-11-20T14:03:27;1.53;;;1.17;;
31848;SDS011;18414;59.352;18.152;2022-11-20T14:05:59;2.30;;;1.20;;
31848;SDS011;18414;59.352;18.152;2022-11-20T14:08:31;1.90;;;1.27;;
31848;SDS011;18414;59.352;18.152;2022-11-20T14:11:16;1.30;;;1.20;;
31848;SDS011;18414;59.352;18.152;2022-11-20T14:16:25;2.23;;;1.30;;
31848;SDS011;18414;59.352;18.152;2022-11-20T14:18:53;1.47;;;1.10;;
31848;SDS011;18414;59.352;18.152;2022-11-20T14:21:26;2.03;;;1.03;;
31848;SDS011;18414;59.352;18.152;2022-11-20T14:24:09;1.70;;;1.20;;
31848;SDS011;18414;59.352;18.152;2022-11-20T14:26:35;1.53;;;1.40;;
31848;SDS011;18414;59.352;18.152;2022-11-20T14:29:02;1.73;;;1.13;;
31848;SDS011;18414;59.352;18.152;2022-11-20T14:31:28;3.90;;;1.20;;
31848;SDS011;18414;59.352;18.152;2022-11-20T14:33:53;1.00;;;1.00;;
31848;SDS011;18414;59.352;18.152;2022-11-20T14:36:20;1.00;;;0.97;;
31848;SDS011;18414;59.352;18.152;2022-11-20T14:38:48;1.90;;;1.10;;
31848;SDS011;18414;59.352;18.152;2022-11-20T14:41:17;1.30;;;1.20;;
31848;SDS011;18414;59.352;18.152;2022-11-20T14:43:45;1.80;;;1.17;;
31848;SDS011;18414;59.352;18.152;2022-11-20T14:46:12;1.30;;;1.20;;
31848;SDS011;18414;59.352;18.152;2022-11-20T14:48:40;2.77;;;1.40;;
31848;SDS011;18414;59.352;18.152;2022-11-20T14:51:12;2.87;;;1.20;;
31848;SDS011;18414;59.352;18.152;2022-11-20T14:53:48;0.80;;;0.80;;
31848;SDS011;18414;59.352;18.152;2022-11-20T14:56:14;2.00;;;1.50;;
31848;SDS011;18414;59.352;18.152;2022-11-20T14:58:54;1.47;;;1.37;;
31848;SDS011;18414;59.352;18.152;2022-11-20T15:01:24;1.70;;;1.30;;
31848;SDS011;18414;59.352;18.152;2022-11-20T15:03:57;1.50;;;1.40;;
31848;SDS011;18414;59.352;18.152;2022-11-20T15:06:34;1.33;;;1.10;;
31848;SDS011;18414;59.352;18.152;2022-11-20T15:09:01;3.13;;;1.67;;
31848;SDS011;18414;59.352;18.152;2022-11-20T15:11:34;1.43;;;1.30;;
31848;SDS011;18414;59.352;18.152;2022-11-20T15:14:04;1.30;;;1.20;;
31848;SDS011;18414;59.352;18.152;2022-11-20T15:16:31;2.00;;;1.20;;
31848;SDS011;18414;59.352;18.152;2022-11-20T15:18:56;1.27;;;1.17;;
31848;SDS011;18414;59.352;18.152;2022-11-20T15:21:22;1.40;;;1.30;;
31848;SDS011;18414;59.352;18.152;2022-11-20T15:23:47;1.50;;;1.20;;
31848;SDS011;18414;59.352;18.152;2022-11-20T15:26:14;1.43;;;1.13;;
31848;SDS011;18414;59.352;18.152;2022-11-20T15:28:50;3.27;;;1.20;;
31848;SDS011;18414;59.352;18.152;2022-11-20T15:31:17;1.10;;;0.93;;
31848;SDS011;18414;59.352;18.152;2022-11-20T15:33:44;2.70;;;1.40;;
31848;SDS011;18414;59.352;18.152;2022-11-20T15:36:09;1.20;;;1.10;;
31848;SDS011;18414;59.352;18.152;2022-11-20T15:38:36;1.87;;;1.10;;
31848;SDS011;18414;59.352;18.152;2022-11-20T15:41:01;1.30;;;1.20;;
31848;SDS011;18414;59.352;18.152;2022-11-20T15:43:26;2.20;;;1.27;;
31848;SDS011;18414;59.352;18.152;2022-11-20T15:45:56;2.20;;;1.43;;
31848;SDS011;18414;59.352;18.152;2022-11-20T15:48:29;2.97;;;1.20;;
31848;SDS011;18414;59.352;18.152;2022-11-20T15:51:05;3.20;;;1.20;;
31848;SDS011;18414;59.352;18.152;2022-11-20T15:53:52;1.73;;;1.10;;
31848;SDS011;18414;59.352;18.152;2022-11-20T15:56:17;1.77;;;1.10;;
31848;SDS011;18414;59.352;18.152;2022-11-20T15:58:42;1.63;;;1.20;;
31848;SDS011;18414;59.352;18.152;2022-11-20T16:01:15;2.60;;;1.20;;
31848;SDS011;18414;59.352;18.152;2022-11-20T16:03:42;1.20;;;1.10;;
31848;SDS011;18414;59.352;18.152;2022-11-20T16:06:08;2.60;;;1.30;;
31848;SDS011;18414;59.352;18.152;2022-11-20T16:08:33;1.80;;;1.13;;